sensor_id;sensor_type;location;lat;lon;timestamp;temperature;humidity
29775;DHT22;16676;51.202;6.774;2023-05-01T00:03:17;20.30;65.20
29775;DHT22;16676;51.202;6.774;2023-05-01T00:07:19;20.30;65.80
29775;DHT22;16676;51.202;6.774;2023-05-01T00:11:21;20.30;65.80
29775;DHT22;16676;51.202;6.774;2023-05-01T00:15:24;20.30;66.00
29775;DHT22;16676;51.202;6.774;2023-05-01T00:19:27;20.30;65.50
29775;DHT22;16676;51.202;6.774;2023-05-01T00:23:29;20.30;65.60
29775;DHT22;16676;51.202;6.774;2023-05-01T00:27:31;20.30;65.40
29775;DHT22;16676;51.202;6.774;2023-05-01T00:31:33;20.20;65.20
29775;DHT22;16676;51.202;6.774;2023-05-01T00:35:36;20.30;64.60
29775;DHT22;16676;51.202;6.774;2023-05-01T00:39:38;20.30;64.30
29775;DHT22;16676;51.202;6.774;2023-05-01T00:43:40;20.30;64.20
29775;DHT22;16676;51.202;6.774;2023-05-01T00:47:42;20.20;61.80
29775;DHT22;16676;51.202;6.774;2023-05-01T00:51:48;20.20;65.40
29775;DHT22;16676;51.202;6.774;2023-05-01T00:55:53;20.30;60.80
29775;DHT22;16676;51.202;6.774;2023-05-01T00:59:57;20.30;60.20
29775;DHT22;16676;51.202;6.774;2023-05-01T01:03:58;20.20;60.50
29775;DHT22;16676;51.202;6.774;2023-05-01T01:08:12;20.20;59.90
29775;DHT22;16676;51.202;6.774;2023-05-01T01:12:28;20.20;61.50
29775;DHT22;16676;51.202;6.774;2023-05-01T01:16:38;20.20;64.20
29775;DHT22;16676;51.202;6.774;2023-05-01T01:20:44;20.20;61.00
29775;DHT22;16676;51.202;6.774;2023-05-01T01:29:16;20.20;60.50
29775;DHT22;16676;51.202;6.774;2023-05-01T01:33:55;20.20;60.30
29775;DHT22;16676;51.202;6.774;2023-05-01T01:38:05;20.20;59.30
29775;DHT22;16676;51.202;6.774;2023-05-01T01:42:09;20.20;59.20
29775;DHT22;16676;51.202;6.774;2023-05-01T01:46:15;20.20;60.60
29775;DHT22;16676;51.202;6.774;2023-05-01T01:50:19;20.20;60.10
29775;DHT22;16676;51.202;6.774;2023-05-01T01:54:28;20.20;60.40
29775;DHT22;16676;51.202;6.774;2023-05-01T01:58:31;20.20;63.20
29775;DHT22;16676;51.202;6.774;2023-05-01T02:02:34;20.20;59.80
29775;DHT22;16676;51.202;6.774;2023-05-01T02:06:40;20.20;60.10
29775;DHT22;16676;51.202;6.774;2023-05-01T02:10:43;20.20;60.20
29775;DHT22;16676;51.202;6.774;2023-05-01T02:14:47;20.20;61.90
29775;DHT22;16676;51.202;6.774;2023-05-01T02:18:51;20.20;61.20
29775;DHT22;16676;51.202;6.774;2023-05-01T02:22:56;20.10;59.90
29775;DHT22;16676;51.202;6.774;2023-05-01T02:27:03;20.20;59.60
29775;DHT22;16676;51.202;6.774;2023-05-01T02:31:07;20.10;60.00
29775;DHT22;16676;51.202;6.774;2023-05-01T02:35:09;20.10;60.10
29775;DHT22;16676;51.202;6.774;2023-05-01T02:39:13;20.10;59.50
29775;DHT22;16676;51.202;6.774;2023-05-01T02:43:19;20.20;59.70
29775;DHT22;16676;51.202;6.774;2023-05-01T02:47:22;20.10;59.30
29775;DHT22;16676;51.202;6.774;2023-05-01T02:51:24;20.20;59.40
29775;DHT22;16676;51.202;6.774;2023-05-01T02:55:28;20.10;60.20
29775;DHT22;16676;51.202;6.774;2023-05-01T02:59:30;20.10;59.30
29775;DHT22;16676;51.202;6.774;2023-05-01T03:03:32;20.10;59.30
29775;DHT22;16676;51.202;6.774;2023-05-01T03:07:35;20.10;59.20
29775;DHT22;16676;51.202;6.774;2023-05-01T03:11:38;20.10;60.00
29775;DHT22;16676;51.202;6.774;2023-05-01T03:15:40;20.10;59.40
29775;DHT22;16676;51.202;6.774;2023-05-01T03:19:42;20.10;59.00
29775;DHT22;16676;51.202;6.774;2023-05-01T03:23:44;20.10;59.60
29775;DHT22;16676;51.202;6.774;2023-05-01T03:27:47;20.10;59.30
29775;DHT22;16676;51.202;6.774;2023-05-01T03:31:50;20.10;59.30
29775;DHT22;16676;51.202;6.774;2023-05-01T03:35:58;20.00;59.10
29775;DHT22;16676;51.202;6.774;2023-05-01T03:40:01;20.00;59.20
29775;DHT22;16676;51.202;6.774;2023-05-01T03:44:05;20.00;58.90
29775;DHT22;16676;51.202;6.774;2023-05-01T03:48:07;20.00;59.50
29775;DHT22;16676;51.202;6.774;2023-05-01T03:52:09;20.00;59.20
29775;DHT22;16676;51.202;6.774;2023-05-01T03:56:11;20.00;59.60
29775;DHT22;16676;51.202;6.774;2023-05-01T04:00:14;20.00;59.10
29775;DHT22;16676;51.202;6.774;2023-05-01T04:04:16;20.00;59.90
29775;DHT22;16676;51.202;6.774;2023-05-01T04:08:18;20.00;59.20
29775;DHT22;16676;51.202;6.774;2023-05-01T04:12:20;20.00;59.60
29775;DHT22;16676;51.202;6.774;2023-05-01T04:16:24;20.00;59.40
29775;DHT22;16676;51.202;6.774;2023-05-01T04:20:26;19.90;59.40
29775;DHT22;16676;51.202;6.774;2023-05-01T04:24:28;20.00;59.40
29775;DHT22;16676;51.202;6.774;2023-05-01T04:28:29;20.00;59.60
29775;DHT22;16676;51.202;6.774;2023-05-01T04:32:33;19.90;59.60
29775;DHT22;16676;51.202;6.774;2023-05-01T04:36:35;20.00;59.70
29775;DHT22;16676;51.202;6.774;2023-05-01T04:40:36;19.90;59.60
29775;DHT22;16676;51.202;6.774;2023-05-01T04:44:38;19.90;60.00
29775;DHT22;16676;51.202;6.774;2023-05-01T04:48:42;20.00;60.80
29775;DHT22;16676;51.202;6.774;2023-05-01T04:52:44;19.90;60.70
29775;DHT22;16676;51.202;6.774;2023-05-01T04:56:45;19.90;59.80
29775;DHT22;16676;51.202;6.774;2023-05-01T05:00:47;19.90;59.80
29775;DHT22;16676;51.202;6.774;2023-05-01T05:04:50;19.90;59.60
29775;DHT22;16676;51.202;6.774;2023-05-01T05:08:53;19.90;60.10
29775;DHT22;16676;51.202;6.774;2023-05-01T05:12:57;19.90;63.60
29775;DHT22;16676;51.202;6.774;2023-05-01T05:16:59;19.90;60.20
29775;DHT22;16676;51.202;6.774;2023-05-01T05:21:03;19.90;61.60
29775;DHT22;16676;51.202;6.774;2023-05-01T05:25:06;19.90;59.90
29775;DHT22;16676;51.202;6.774;2023-05-01T05:29:08;19.90;62.50
29775;DHT22;16676;51.202;6.774;2023-05-01T05:33:10;19.90;65.20
29775;DHT22;16676;51.202;6.774;2023-05-01T05:37:14;19.90;63.30
29775;DHT22;16676;51.202;6.774;2023-05-01T05:41:16;19.90;64.90
29775;DHT22;16676;51.202;6.774;2023-05-01T05:45:18;19.90;60.60
29775;DHT22;16676;51.202;6.774;2023-05-01T05:49:20;19.90;59.70
29775;DHT22;16676;51.202;6.774;2023-05-01T05:53:23;19.90;61.00
29775;DHT22;16676;51.202;6.774;2023-05-01T05:57:25;19.90;63.30
29775;DHT22;16676;51.202;6.774;2023-05-01T06:01:27;19.90;59.50
29775;DHT22;16676;51.202;6.774;2023-05-01T06:05:29;19.90;63.30
29775;DHT22;16676;51.202;6.774;2023-05-01T06:09:32;19.90;61.00
29775;DHT22;16676;51.202;6.774;2023-05-01T06:13:34;19.90;59.60
29775;DHT22;16676;51.202;6.774;2023-05-01T06:17:36;19.90;60.80
29775;DHT22;16676;51.202;6.774;2023-05-01T06:21:38;19.80;64.20
29775;DHT22;16676;51.202;6.774;2023-05-01T06:25:42;19.90;63.30
29775;DHT22;16676;51.202;6.774;2023-05-01T06:29:43;19.90;59.70
29775;DHT22;16676;51.202;6.774;2023-05-01T06:33:45;19.90;62.00
29775;DHT22;16676;51.202;6.774;2023-05-01T06:37:47;19.90;62.90
29775;DHT22;16676;51.202;6.774;2023-05-01T06:41:50;19.80;63.70
29775;DHT22;16676;51.202;6.774;2023-05-01T06:45:52;19.80;63.60
29775;DHT22;16676;51.202;6.774;2023-05-01T06:49:54;19.80;64.30
29775;DHT22;16676;51.202;6.774;2023-05-01T06:53:56;19.80;61.40
29775;DHT22;16676;51.202;6.774;2023-05-01T06:57:59;19.80;60.00
29775;DHT22;16676;51.202;6.774;2023-05-01T07:02:01;19.90;60.10
29775;DHT22;16676;51.202;6.774;2023-05-01T07:06:03;19.80;63.10
29775;DHT22;16676;51.202;6.774;2023-05-01T07:10:06;19.80;61.30
29775;DHT22;16676;51.202;6.774;2023-05-01T07:14:09;19.90;63.40
29775;DHT22;16676;51.202;6.774;2023-05-01T07:18:11;19.80;61.40
29775;DHT22;16676;51.202;6.774;2023-05-01T07:22:13;19.80;60.20
29775;DHT22;16676;51.202;6.774;2023-05-01T07:26:15;19.80;60.60
29775;DHT22;16676;51.202;6.774;2023-05-01T07:30:19;19.80;59.20
29775;DHT22;16676;51.202;6.774;2023-05-01T07:34:21;19.90;60.60
29775;DHT22;16676;51.202;6.774;2023-05-01T07:38:22;19.90;61.10
29775;DHT22;16676;51.202;6.774;2023-05-01T07:42:25;19.90;63.30
29775;DHT22;16676;51.202;6.774;2023-05-01T07:46:29;19.90;62.10
29775;DHT22;16676;51.202;6.774;2023-05-01T07:50:31;19.90;59.80
29775;DHT22;16676;51.202;6.774;2023-05-01T07:54:32;19.60;52.30
29775;DHT22;16676;51.202;6.774;2023-05-01T07:58:34;19.10;51.70
29775;DHT22;16676;51.202;6.774;2023-05-01T08:02:38;18.90;52.40
29775;DHT22;16676;51.202;6.774;2023-05-01T08:06:40;18.80;52.80
29775;DHT22;16676;51.202;6.774;2023-05-01T08:10:42;18.70;53.00
29775;DHT22;16676;51.202;6.774;2023-05-01T08:14:44;18.50;52.10
29775;DHT22;16676;51.202;6.774;2023-05-01T08:18:47;18.30;53.00
29775;DHT22;16676;51.202;6.774;2023-05-01T08:22:49;18.20;52.50
29775;DHT22;16676;51.202;6.774;2023-05-01T08:26:51;18.30;52.80
29775;DHT22;16676;51.202;6.774;2023-05-01T08:30:53;18.30;53.00
29775;DHT22;16676;51.202;6.774;2023-05-01T08:34:57;18.20;53.00
29775;DHT22;16676;51.202;6.774;2023-05-01T08:38:59;18.30;53.40
29775;DHT22;16676;51.202;6.774;2023-05-01T08:43:01;18.40;53.30
29775;DHT22;16676;51.202;6.774;2023-05-01T08:47:09;18.30;52.00
29775;DHT22;16676;51.202;6.774;2023-05-01T08:51:14;18.20;52.40
29775;DHT22;16676;51.202;6.774;2023-05-01T08:55:18;18.30;52.70
29775;DHT22;16676;51.202;6.774;2023-05-01T08:59:22;18.20;52.30
29775;DHT22;16676;51.202;6.774;2023-05-01T09:03:25;18.30;52.70
29775;DHT22;16676;51.202;6.774;2023-05-01T09:07:29;18.40;52.50
29775;DHT22;16676;51.202;6.774;2023-05-01T09:11:31;18.50;53.10
29775;DHT22;16676;51.202;6.774;2023-05-01T09:15:33;18.60;52.70
29775;DHT22;16676;51.202;6.774;2023-05-01T09:19:35;18.60;52.70
29775;DHT22;16676;51.202;6.774;2023-05-01T09:23:38;18.60;52.70
29775;DHT22;16676;51.202;6.774;2023-05-01T09:27:41;18.60;52.70
29775;DHT22;16676;51.202;6.774;2023-05-01T09:31:43;18.70;52.80
29775;DHT22;16676;51.202;6.774;2023-05-01T09:35:52;18.80;53.00
29775;DHT22;16676;51.202;6.774;2023-05-01T09:40:05;18.80;52.70
29775;DHT22;16676;51.202;6.774;2023-05-01T09:44:16;18.90;52.20
29775;DHT22;16676;51.202;6.774;2023-05-01T09:48:18;18.80;52.60
29775;DHT22;16676;51.202;6.774;2023-05-01T09:52:20;18.70;52.50
29775;DHT22;16676;51.202;6.774;2023-05-01T09:56:25;18.70;52.70
29775;DHT22;16676;51.202;6.774;2023-05-01T10:00:27;18.90;52.20
29775;DHT22;16676;51.202;6.774;2023-05-01T10:04:30;19.00;52.50
29775;DHT22;16676;51.202;6.774;2023-05-01T10:08:46;19.00;52.50
29775;DHT22;16676;51.202;6.774;2023-05-01T10:12:49;18.90;52.10
29775;DHT22;16676;51.202;6.774;2023-05-01T10:16:52;19.00;52.00
29775;DHT22;16676;51.202;6.774;2023-05-01T10:20:56;19.00;51.90
29775;DHT22;16676;51.202;6.774;2023-05-01T10:24:58;19.10;52.00
29775;DHT22;16676;51.202;6.774;2023-05-01T10:29:03;19.10;52.00
29775;DHT22;16676;51.202;6.774;2023-05-01T10:33:04;19.20;52.20
29775;DHT22;16676;51.202;6.774;2023-05-01T10:37:10;19.40;52.30
29775;DHT22;16676;51.202;6.774;2023-05-01T10:41:13;19.50;51.10
29775;DHT22;16676;51.202;6.774;2023-05-01T10:45:28;19.70;51.80
29775;DHT22;16676;51.202;6.774;2023-05-01T10:50:01;19.70;52.00
29775;DHT22;16676;51.202;6.774;2023-05-01T10:54:25;19.60;51.30
29775;DHT22;16676;51.202;6.774;2023-05-01T10:58:55;19.60;51.00
29775;DHT22;16676;51.202;6.774;2023-05-01T11:03:36;19.80;52.50
29775;DHT22;16676;51.202;6.774;2023-05-01T11:07:39;19.90;51.40
29775;DHT22;16676;51.202;6.774;2023-05-01T11:11:45;20.00;50.50
29775;DHT22;16676;51.202;6.774;2023-05-01T11:15:50;20.00;51.80
29775;DHT22;16676;51.202;6.774;2023-05-01T11:19:53;19.90;51.80
29775;DHT22;16676;51.202;6.774;2023-05-01T11:23:55;19.90;51.50
29775;DHT22;16676;51.202;6.774;2023-05-01T11:27:59;20.00;52.50
29775;DHT22;16676;51.202;6.774;2023-05-01T11:32:02;20.00;49.20
29775;DHT22;16676;51.202;6.774;2023-05-01T11:36:06;19.90;48.90
29775;DHT22;16676;51.202;6.774;2023-05-01T11:40:18;20.00;49.20
29775;DHT22;16676;51.202;6.774;2023-05-01T11:44:21;20.10;50.40
29775;DHT22;16676;51.202;6.774;2023-05-01T11:48:23;20.20;49.60
29775;DHT22;16676;51.202;6.774;2023-05-01T11:52:27;20.20;48.20
29775;DHT22;16676;51.202;6.774;2023-05-01T11:56:30;20.20;48.10
29775;DHT22;16676;51.202;6.774;2023-05-01T12:00:34;20.40;49.60
29775;DHT22;16676;51.202;6.774;2023-05-01T12:04:37;20.30;47.60
29775;DHT22;16676;51.202;6.774;2023-05-01T12:08:47;20.30;46.40
29775;DHT22;16676;51.202;6.774;2023-05-01T12:12:50;20.40;47.80
29775;DHT22;16676;51.202;6.774;2023-05-01T12:16:52;20.40;46.50
29775;DHT22;16676;51.202;6.774;2023-05-01T12:20:55;20.40;45.60
29775;DHT22;16676;51.202;6.774;2023-05-01T12:24:59;20.40;45.40
29775;DHT22;16676;51.202;6.774;2023-05-01T12:29:03;20.30;44.60
29775;DHT22;16676;51.202;6.774;2023-05-01T12:33:10;20.30;44.90
29775;DHT22;16676;51.202;6.774;2023-05-01T12:37:12;20.30;44.70
29775;DHT22;16676;51.202;6.774;2023-05-01T12:41:15;20.40;45.40
29775;DHT22;16676;51.202;6.774;2023-05-01T12:45:17;20.40;45.80
29775;DHT22;16676;51.202;6.774;2023-05-01T12:49:20;20.50;47.90
29775;DHT22;16676;51.202;6.774;2023-05-01T12:53:23;20.60;49.80
29775;DHT22;16676;51.202;6.774;2023-05-01T12:57:27;20.70;51.30
29775;DHT22;16676;51.202;6.774;2023-05-01T13:01:29;20.70;49.40
29775;DHT22;16676;51.202;6.774;2023-05-01T13:05:31;20.70;51.10
29775;DHT22;16676;51.202;6.774;2023-05-01T13:09:33;20.80;49.60
29775;DHT22;16676;51.202;6.774;2023-05-01T13:13:36;20.80;51.10
29775;DHT22;16676;51.202;6.774;2023-05-01T13:17:38;20.70;50.20
29775;DHT22;16676;51.202;6.774;2023-05-01T13:21:48;20.80;52.10
29775;DHT22;16676;51.202;6.774;2023-05-01T13:25:55;20.80;52.90
29775;DHT22;16676;51.202;6.774;2023-05-01T13:29:59;20.80;53.70
29775;DHT22;16676;51.202;6.774;2023-05-01T13:34:03;20.70;55.70
29775;DHT22;16676;51.202;6.774;2023-05-01T13:38:08;20.80;56.90
29775;DHT22;16676;51.202;6.774;2023-05-01T13:42:12;20.80;57.00
29775;DHT22;16676;51.202;6.774;2023-05-01T13:46:16;20.80;56.20
29775;DHT22;16676;51.202;6.774;2023-05-01T13:50:18;20.70;59.70
29775;DHT22;16676;51.202;6.774;2023-05-01T13:54:21;20.70;65.10
29775;DHT22;16676;51.202;6.774;2023-05-01T13:58:23;20.80;68.90
29775;DHT22;16676;51.202;6.774;2023-05-01T14:02:27;20.90;72.30
29775;DHT22;16676;51.202;6.774;2023-05-01T14:06:29;21.00;59.20
29775;DHT22;16676;51.202;6.774;2023-05-01T14:10:31;21.00;58.10
29775;DHT22;16676;51.202;6.774;2023-05-01T14:14:35;21.10;60.00
29775;DHT22;16676;51.202;6.774;2023-05-01T14:18:42;21.10;61.00
29775;DHT22;16676;51.202;6.774;2023-05-01T14:22:46;21.10;59.90
29775;DHT22;16676;51.202;6.774;2023-05-01T14:26:51;21.00;59.40
29775;DHT22;16676;51.202;6.774;2023-05-01T14:30:53;21.00;58.90
29775;DHT22;16676;51.202;6.774;2023-05-01T14:34:56;21.00;58.70
29775;DHT22;16676;51.202;6.774;2023-05-01T14:39:00;21.00;59.50
29775;DHT22;16676;51.202;6.774;2023-05-01T14:43:03;21.00;59.20
29775;DHT22;16676;51.202;6.774;2023-05-01T14:47:08;20.90;58.80
29775;DHT22;16676;51.202;6.774;2023-05-01T14:51:11;20.90;59.40
29775;DHT22;16676;51.202;6.774;2023-05-01T14:55:14;20.90;58.90
29775;DHT22;16676;51.202;6.774;2023-05-01T14:59:17;20.90;59.20
29775;DHT22;16676;51.202;6.774;2023-05-01T15:03:19;20.90;57.80
29775;DHT22;16676;51.202;6.774;2023-05-01T15:07:23;20.90;58.80
29775;DHT22;16676;51.202;6.774;2023-05-01T15:11:25;20.80;58.20
29775;DHT22;16676;51.202;6.774;2023-05-01T15:15:27;20.90;58.30
29775;DHT22;16676;51.202;6.774;2023-05-01T15:19:29;20.80;58.00
29775;DHT22;16676;51.202;6.774;2023-05-01T15:23:32;20.80;58.50
29775;DHT22;16676;51.202;6.774;2023-05-01T15:27:34;20.80;58.40
29775;DHT22;16676;51.202;6.774;2023-05-01T15:31:36;20.80;58.70
29775;DHT22;16676;51.202;6.774;2023-05-01T15:35:38;20.80;58.70
29775;DHT22;16676;51.202;6.774;2023-05-01T15:39:42;20.80;58.70
29775;DHT22;16676;51.202;6.774;2023-05-01T15:43:44;20.80;59.10
29775;DHT22;16676;51.202;6.774;2023-05-01T15:47:46;20.80;58.80
29775;DHT22;16676;51.202;6.774;2023-05-01T15:51:48;20.80;59.70
29775;DHT22;16676;51.202;6.774;2023-05-01T15:55:55;20.80;59.10
29775;DHT22;16676;51.202;6.774;2023-05-01T15:59:57;20.80;59.30
29775;DHT22;16676;51.202;6.774;2023-05-01T16:03:59;20.80;59.70
29775;DHT22;16676;51.202;6.774;2023-05-01T16:08:01;20.80;59.80
29775;DHT22;16676;51.202;6.774;2023-05-01T16:12:06;20.70;60.10
29775;DHT22;16676;51.202;6.774;2023-05-01T16:16:09;20.70;60.90
29775;DHT22;16676;51.202;6.774;2023-05-01T16:20:12;20.70;60.90
29775;DHT22;16676;51.202;6.774;2023-05-01T16:24:16;20.70;60.60
29775;DHT22;16676;51.202;6.774;2023-05-01T16:28:19;20.70;60.80
29775;DHT22;16676;51.202;6.774;2023-05-01T16:32:21;20.70;60.70
29775;DHT22;16676;51.202;6.774;2023-05-01T16:36:24;20.70;61.20
29775;DHT22;16676;51.202;6.774;2023-05-01T16:40:27;20.60;61.10
29775;DHT22;16676;51.202;6.774;2023-05-01T16:44:30;20.60;60.70
29775;DHT22;16676;51.202;6.774;2023-05-01T16:48:36;20.60;60.90
29775;DHT22;16676;51.202;6.774;2023-05-01T16:52:39;20.60;60.60
29775;DHT22;16676;51.202;6.774;2023-05-01T16:56:41;20.60;60.40
29775;DHT22;16676;51.202;6.774;2023-05-01T17:00:44;20.60;60.60
29775;DHT22;16676;51.202;6.774;2023-05-01T17:04:46;20.60;60.70
29775;DHT22;16676;51.202;6.774;2023-05-01T17:08:48;20.60;60.50
29775;DHT22;16676;51.202;6.774;2023-05-01T17:12:50;20.60;61.00
29775;DHT22;16676;51.202;6.774;2023-05-01T17:16:53;20.60;61.30
29775;DHT22;16676;51.202;6.774;2023-05-01T17:20:55;20.60;61.90
29775;DHT22;16676;51.202;6.774;2023-05-01T17:24:57;20.60;62.00
29775;DHT22;16676;51.202;6.774;2023-05-01T17:29:02;20.60;61.70
29775;DHT22;16676;51.202;6.774;2023-05-01T17:33:05;20.60;61.80
29775;DHT22;16676;51.202;6.774;2023-05-01T17:37:07;20.70;61.50
29775;DHT22;16676;51.202;6.774;2023-05-01T17:41:09;20.60;61.50
29775;DHT22;16676;51.202;6.774;2023-05-01T17:45:12;20.60;61.80
29775;DHT22;16676;51.202;6.774;2023-05-01T17:49:15;20.70;61.70
29775;DHT22;16676;51.202;6.774;2023-05-01T17:53:17;20.70;62.20
29775;DHT22;16676;51.202;6.774;2023-05-01T17:57:19;20.70;62.10
29775;DHT22;16676;51.202;6.774;2023-05-01T18:01:21;20.70;61.60
29775;DHT22;16676;51.202;6.774;2023-05-01T18:05:24;20.70;62.50
29775;DHT22;16676;51.202;6.774;2023-05-01T18:09:27;20.70;62.00
29775;DHT22;16676;51.202;6.774;2023-05-01T18:13:29;20.70;63.30
29775;DHT22;16676;51.202;6.774;2023-05-01T18:17:37;20.70;63.30
29775;DHT22;16676;51.202;6.774;2023-05-01T18:21:40;20.70;62.20
29775;DHT22;16676;51.202;6.774;2023-05-01T18:25:42;20.70;63.30
29775;DHT22;16676;51.202;6.774;2023-05-01T18:29:44;20.70;64.50
29775;DHT22;16676;51.202;6.774;2023-05-01T18:33:46;20.60;62.20
29775;DHT22;16676;51.202;6.774;2023-05-01T18:37:49;20.60;61.80
29775;DHT22;16676;51.202;6.774;2023-05-01T18:41:53;20.40;61.60
29775;DHT22;16676;51.202;6.774;2023-05-01T18:45:55;20.40;61.50
29775;DHT22;16676;51.202;6.774;2023-05-01T18:49:58;20.40;61.50
29775;DHT22;16676;51.202;6.774;2023-05-01T18:54:01;20.40;62.80
29775;DHT22;16676;51.202;6.774;2023-05-01T18:58:03;20.50;66.60
29775;DHT22;16676;51.202;6.774;2023-05-01T19:02:05;20.50;68.40
29775;DHT22;16676;51.202;6.774;2023-05-01T19:06:07;20.60;67.50
29775;DHT22;16676;51.202;6.774;2023-05-01T19:10:11;20.60;67.10
29775;DHT22;16676;51.202;6.774;2023-05-01T19:14:13;20.60;67.90
29775;DHT22;16676;51.202;6.774;2023-05-01T19:18:15;20.70;67.50
29775;DHT22;16676;51.202;6.774;2023-05-01T19:22:17;20.70;67.80
29775;DHT22;16676;51.202;6.774;2023-05-01T19:26:20;20.60;67.90
29775;DHT22;16676;51.202;6.774;2023-05-01T19:30:22;20.70;67.70
29775;DHT22;16676;51.202;6.774;2023-05-01T19:34:24;20.70;68.00
29775;DHT22;16676;51.202;6.774;2023-05-01T19:38:26;20.70;68.20
29775;DHT22;16676;51.202;6.774;2023-05-01T19:42:30;20.70;67.70
29775;DHT22;16676;51.202;6.774;2023-05-01T19:46:33;20.70;68.30
29775;DHT22;16676;51.202;6.774;2023-05-01T19:50:34;20.70;68.00
29775;DHT22;16676;51.202;6.774;2023-05-01T19:54:36;20.70;68.40
29775;DHT22;16676;51.202;6.774;2023-05-01T19:58:39;20.70;69.00
29775;DHT22;16676;51.202;6.774;2023-05-01T20:02:41;20.70;69.10
29775;DHT22;16676;51.202;6.774;2023-05-01T20:06:43;20.70;69.00
29775;DHT22;16676;51.202;6.774;2023-05-01T20:10:46;20.70;68.40
29775;DHT22;16676;51.202;6.774;2023-05-01T20:14:49;20.70;68.60
29775;DHT22;16676;51.202;6.774;2023-05-01T20:18:51;20.70;67.70
29775;DHT22;16676;51.202;6.774;2023-05-01T20:23:08;20.70;68.00
29775;DHT22;16676;51.202;6.774;2023-05-01T20:27:10;20.70;67.70
29775;DHT22;16676;51.202;6.774;2023-05-01T20:31:13;20.70;69.20
29775;DHT22;16676;51.202;6.774;2023-05-01T20:35:15;20.70;67.50
29775;DHT22;16676;51.202;6.774;2023-05-01T20:39:17;20.70;67.70
29775;DHT22;16676;51.202;6.774;2023-05-01T20:43:19;20.70;68.50
29775;DHT22;16676;51.202;6.774;2023-05-01T20:47:22;20.70;68.30
29775;DHT22;16676;51.202;6.774;2023-05-01T20:51:24;20.70;67.60
29775;DHT22;16676;51.202;6.774;2023-05-01T20:55:28;20.70;67.70
29775;DHT22;16676;51.202;6.774;2023-05-01T20:59:30;20.70;67.90
29775;DHT22;16676;51.202;6.774;2023-05-01T21:03:33;20.70;67.50
29775;DHT22;16676;51.202;6.774;2023-05-01T21:07:35;20.60;67.50
29775;DHT22;16676;51.202;6.774;2023-05-01T21:11:38;20.60;67.30
29775;DHT22;16676;51.202;6.774;2023-05-01T21:15:40;20.70;67.70
29775;DHT22;16676;51.202;6.774;2023-05-01T21:19:44;20.60;67.70
29775;DHT22;16676;51.202;6.774;2023-05-01T21:23:47;20.60;68.10
29775;DHT22;16676;51.202;6.774;2023-05-01T21:27:49;20.60;67.40
29775;DHT22;16676;51.202;6.774;2023-05-01T21:31:51;20.60;68.00
29775;DHT22;16676;51.202;6.774;2023-05-01T21:35:54;20.60;68.80
29775;DHT22;16676;51.202;6.774;2023-05-01T21:39:57;20.60;68.60
29775;DHT22;16676;51.202;6.774;2023-05-01T21:44:01;20.60;67.90
29775;DHT22;16676;51.202;6.774;2023-05-01T21:48:04;20.60;67.90
29775;DHT22;16676;51.202;6.774;2023-05-01T21:52:07;20.60;68.90
29775;DHT22;16676;51.202;6.774;2023-05-01T21:56:09;20.60;68.10
29775;DHT22;16676;51.202;6.774;2023-05-01T22:00:12;20.60;69.40
29775;DHT22;16676;51.202;6.774;2023-05-01T22:04:16;20.50;68.40
29775;DHT22;16676;51.202;6.774;2023-05-01T22:08:19;20.60;68.20
29775;DHT22;16676;51.202;6.774;2023-05-01T22:12:22;20.50;68.40
29775;DHT22;16676;51.202;6.774;2023-05-01T22:16:24;20.50;68.10
29775;DHT22;16676;51.202;6.774;2023-05-01T22:20:26;20.50;68.60
29775;DHT22;16676;51.202;6.774;2023-05-01T22:24:29;20.50;69.20
29775;DHT22;16676;51.202;6.774;2023-05-01T22:28:31;20.50;68.70
29775;DHT22;16676;51.202;6.774;2023-05-01T22:32:33;20.50;69.20
29775;DHT22;16676;51.202;6.774;2023-05-01T22:36:35;20.50;69.20
29775;DHT22;16676;51.202;6.774;2023-05-01T22:40:38;20.50;69.20
29775;DHT22;16676;51.202;6.774;2023-05-01T22:44:40;20.50;69.30
29775;DHT22;16676;51.202;6.774;2023-05-01T22:48:42;20.50;69.60
29775;DHT22;16676;51.202;6.774;2023-05-01T22:52:43;20.50;70.60
29775;DHT22;16676;51.202;6.774;2023-05-01T22:56:47;20.50;69.40
29775;DHT22;16676;51.202;6.774;2023-05-01T23:00:49;20.50;70.10
29775;DHT22;16676;51.202;6.774;2023-05-01T23:04:51;20.50;70.30
29775;DHT22;16676;51.202;6.774;2023-05-01T23:08:53;20.50;69.10
29775;DHT22;16676;51.202;6.774;2023-05-01T23:12:56;20.50;69.90
29775;DHT22;16676;51.202;6.774;2023-05-01T23:17:00;20.50;68.80
29775;DHT22;16676;51.202;6.774;2023-05-01T23:21:01;20.50;68.60
29775;DHT22;16676;51.202;6.774;2023-05-01T23:25:05;20.50;69.50
29775;DHT22;16676;51.202;6.774;2023-05-01T23:29:08;20.40;70.70
29775;DHT22;16676;51.202;6.774;2023-05-01T23:33:12;20.50;68.90
29775;DHT22;16676;51.202;6.774;2023-05-01T23:37:16;20.50;69.70
29775;DHT22;16676;51.202;6.774;2023-05-01T23:41:18;20.40;69.20
29775;DHT22;16676;51.202;6.774;2023-05-01T23:45:21;20.40;69.20
29775;DHT22;16676;51.202;6.774;2023-05-01T23:49:23;20.40;69.60
29775;DHT22;16676;51.202;6.774;2023-05-01T23:53:26;20.40;69.90
29775;DHT22;16676;51.202;6.774;2023-05-01T23:57:28;20.40;69.60
